sensor_id;sensor_type;location;lat;lon;timestamp;temperature;humidity
18289;DHT22;9270;49.774;8.472;2023-05-10T00:02:24;16.00;99.90
18289;DHT22;9270;49.774;8.472;2023-05-10T00:04:51;16.10;99.90
18289;DHT22;9270;49.774;8.472;2023-05-10T00:07:17;16.20;99.90
18289;DHT22;9270;49.774;8.472;2023-05-10T00:09:44;16.10;99.90
18289;DHT22;9270;49.774;8.472;2023-05-10T00:12:11;16.20;99.90
18289;DHT22;9270;49.774;8.472;2023-05-10T00:14:38;16.20;99.90
18289;DHT22;9270;49.774;8.472;2023-05-10T00:17:06;16.10;99.90
18289;DHT22;9270;49.774;8.472;2023-05-10T00:19:32;16.10;99.90
18289;DHT22;9270;49.774;8.472;2023-05-10T00:21:59;16.20;99.90
18289;DHT22;9270;49.774;8.472;2023-05-10T00:24:26;16.10;99.90
18289;DHT22;9270;49.774;8.472;2023-05-10T00:26:52;16.00;99.90
18289;DHT22;9270;49.774;8.472;2023-05-10T00:29:19;16.00;99.90
18289;DHT22;9270;49.774;8.472;2023-05-10T00:31:46;16.10;99.90
18289;DHT22;9270;49.774;8.472;2023-05-10T00:34:14;16.10;99.90
18289;DHT22;9270;49.774;8.472;2023-05-10T00:36:41;16.00;99.90
18289;DHT22;9270;49.774;8.472;2023-05-10T00:39:07;16.00;99.90
18289;DHT22;9270;49.774;8.472;2023-05-10T00:41:34;15.90;99.90
18289;DHT22;9270;49.774;8.472;2023-05-10T00:44:01;15.70;99.90
18289;DHT22;9270;49.774;8.472;2023-05-10T00:46:28;15.60;99.90
18289;DHT22;9270;49.774;8.472;2023-05-10T00:48:55;15.80;99.90
18289;DHT22;9270;49.774;8.472;2023-05-10T00:51:24;15.70;99.90
18289;DHT22;9270;49.774;8.472;2023-05-10T00:53:51;15.80;99.90
18289;DHT22;9270;49.774;8.472;2023-05-10T00:56:18;15.80;99.90
18289;DHT22;9270;49.774;8.472;2023-05-10T00:58:46;15.70;99.90
18289;DHT22;9270;49.774;8.472;2023-05-10T01:01:13;15.70;99.90
18289;DHT22;9270;49.774;8.472;2023-05-10T01:03:40;15.70;99.90
18289;DHT22;9270;49.774;8.472;2023-05-10T01:06:07;15.70;99.90
18289;DHT22;9270;49.774;8.472;2023-05-10T01:08:36;15.80;99.90
18289;DHT22;9270;49.774;8.472;2023-05-10T01:11:03;15.80;99.90
18289;DHT22;9270;49.774;8.472;2023-05-10T01:13:33;15.80;99.90
18289;DHT22;9270;49.774;8.472;2023-05-10T01:16:01;15.80;99.90
18289;DHT22;9270;49.774;8.472;2023-05-10T01:18:29;15.70;99.90
18289;DHT22;9270;49.774;8.472;2023-05-10T01:25:18;15.80;99.90
18289;DHT22;9270;49.774;8.472;2023-05-10T01:31:09;15.70;99.90
18289;DHT22;9270;49.774;8.472;2023-05-10T01:33:42;15.70;99.90
18289;DHT22;9270;49.774;8.472;2023-05-10T01:36:15;15.70;99.90
18289;DHT22;9270;49.774;8.472;2023-05-10T01:38:46;15.70;99.90
18289;DHT22;9270;49.774;8.472;2023-05-10T01:41:18;15.60;99.90
18289;DHT22;9270;49.774;8.472;2023-05-10T01:43:53;15.70;99.90
18289;DHT22;9270;49.774;8.472;2023-05-10T01:46:27;15.70;99.90
18289;DHT22;9270;49.774;8.472;2023-05-10T01:48:58;15.60;99.90
18289;DHT22;9270;49.774;8.472;2023-05-10T01:51:29;15.70;99.90
18289;DHT22;9270;49.774;8.472;2023-05-10T01:54:00;15.50;99.90
18289;DHT22;9270;49.774;8.472;2023-05-10T01:56:30;15.50;99.90
18289;DHT22;9270;49.774;8.472;2023-05-10T01:58:58;15.60;99.90
18289;DHT22;9270;49.774;8.472;2023-05-10T02:01:27;15.60;99.90
18289;DHT22;9270;49.774;8.472;2023-05-10T02:03:55;15.50;99.90
18289;DHT22;9270;49.774;8.472;2023-05-10T02:06:24;15.50;99.90
18289;DHT22;9270;49.774;8.472;2023-05-10T02:12:35;15.50;99.90
18289;DHT22;9270;49.774;8.472;2023-05-10T02:15:05;15.50;99.90
18289;DHT22;9270;49.774;8.472;2023-05-10T02:17:33;15.40;99.90
18289;DHT22;9270;49.774;8.472;2023-05-10T02:20:03;15.40;99.90
18289;DHT22;9270;49.774;8.472;2023-05-10T02:22:33;15.50;99.90
18289;DHT22;9270;49.774;8.472;2023-05-10T02:25:01;15.50;99.90
18289;DHT22;9270;49.774;8.472;2023-05-10T02:27:29;15.40;99.90
18289;DHT22;9270;49.774;8.472;2023-05-10T02:29:57;15.30;99.90
18289;DHT22;9270;49.774;8.472;2023-05-10T02:32:26;15.20;99.90
18289;DHT22;9270;49.774;8.472;2023-05-10T02:34:54;15.20;99.90
18289;DHT22;9270;49.774;8.472;2023-05-10T02:37:24;15.30;99.90
18289;DHT22;9270;49.774;8.472;2023-05-10T02:39:54;15.30;99.90
18289;DHT22;9270;49.774;8.472;2023-05-10T02:42:24;15.40;99.90
18289;DHT22;9270;49.774;8.472;2023-05-10T02:44:53;15.30;99.90
18289;DHT22;9270;49.774;8.472;2023-05-10T02:47:21;15.40;99.90
18289;DHT22;9270;49.774;8.472;2023-05-10T02:49:47;15.30;99.90
18289;DHT22;9270;49.774;8.472;2023-05-10T02:52:16;15.30;99.90
18289;DHT22;9270;49.774;8.472;2023-05-10T02:54:45;15.40;99.90
18289;DHT22;9270;49.774;8.472;2023-05-10T02:57:16;15.30;99.90
18289;DHT22;9270;49.774;8.472;2023-05-10T02:59:44;15.30;99.90
18289;DHT22;9270;49.774;8.472;2023-05-10T03:02:12;15.30;99.90
18289;DHT22;9270;49.774;8.472;2023-05-10T03:04:39;15.40;99.90
18289;DHT22;9270;49.774;8.472;2023-05-10T03:07:06;15.40;99.90
18289;DHT22;9270;49.774;8.472;2023-05-10T03:09:33;15.40;99.90
18289;DHT22;9270;49.774;8.472;2023-05-10T03:12:07;15.40;99.90
18289;DHT22;9270;49.774;8.472;2023-05-10T03:14:48;15.40;99.90
18289;DHT22;9270;49.774;8.472;2023-05-10T03:17:22;15.40;99.90
18289;DHT22;9270;49.774;8.472;2023-05-10T03:19:53;15.30;99.90
18289;DHT22;9270;49.774;8.472;2023-05-10T03:22:24;15.30;99.90
18289;DHT22;9270;49.774;8.472;2023-05-10T03:24:53;15.30;99.90
18289;DHT22;9270;49.774;8.472;2023-05-10T03:27:25;15.30;99.90
18289;DHT22;9270;49.774;8.472;2023-05-10T03:29:53;15.30;99.90
18289;DHT22;9270;49.774;8.472;2023-05-10T03:32:21;15.30;99.90
18289;DHT22;9270;49.774;8.472;2023-05-10T03:34:48;15.30;99.90
18289;DHT22;9270;49.774;8.472;2023-05-10T03:37:15;15.30;99.90
18289;DHT22;9270;49.774;8.472;2023-05-10T03:39:41;15.30;99.90
18289;DHT22;9270;49.774;8.472;2023-05-10T03:42:08;15.30;99.90
18289;DHT22;9270;49.774;8.472;2023-05-10T03:48:19;15.10;99.90
18289;DHT22;9270;49.774;8.472;2023-05-10T03:50:46;15.10;99.90
18289;DHT22;9270;49.774;8.472;2023-05-10T03:53:14;15.10;99.90
18289;DHT22;9270;49.774;8.472;2023-05-10T03:55:41;15.10;99.90
18289;DHT22;9270;49.774;8.472;2023-05-10T03:58:10;15.00;99.90
18289;DHT22;9270;49.774;8.472;2023-05-10T04:00:37;15.00;99.90
18289;DHT22;9270;49.774;8.472;2023-05-10T04:03:09;15.10;99.90
18289;DHT22;9270;49.774;8.472;2023-05-10T04:05:37;15.00;99.90
18289;DHT22;9270;49.774;8.472;2023-05-10T04:08:04;15.20;99.90
18289;DHT22;9270;49.774;8.472;2023-05-10T04:10:31;15.20;99.90
18289;DHT22;9270;49.774;8.472;2023-05-10T04:12:58;15.30;99.90
18289;DHT22;9270;49.774;8.472;2023-05-10T04:15:25;15.30;99.90
18289;DHT22;9270;49.774;8.472;2023-05-10T04:17:51;15.20;99.90
18289;DHT22;9270;49.774;8.472;2023-05-10T04:20:19;15.10;99.90
18289;DHT22;9270;49.774;8.472;2023-05-10T04:22:48;15.10;99.90
18289;DHT22;9270;49.774;8.472;2023-05-10T04:25:14;15.00;99.90
18289;DHT22;9270;49.774;8.472;2023-05-10T04:27:42;15.10;99.90
18289;DHT22;9270;49.774;8.472;2023-05-10T04:30:09;15.30;99.90
18289;DHT22;9270;49.774;8.472;2023-05-10T04:32:36;15.10;99.90
18289;DHT22;9270;49.774;8.472;2023-05-10T04:35:03;15.10;99.90
18289;DHT22;9270;49.774;8.472;2023-05-10T04:37:30;15.10;99.90
18289;DHT22;9270;49.774;8.472;2023-05-10T04:39:58;15.20;99.90
18289;DHT22;9270;49.774;8.472;2023-05-10T04:42:26;15.00;99.90
18289;DHT22;9270;49.774;8.472;2023-05-10T04:44:52;15.00;99.90
18289;DHT22;9270;49.774;8.472;2023-05-10T04:47:19;15.00;99.90
18289;DHT22;9270;49.774;8.472;2023-05-10T04:49:46;15.10;99.90
18289;DHT22;9270;49.774;8.472;2023-05-10T04:52:13;15.00;99.90
18289;DHT22;9270;49.774;8.472;2023-05-10T04:55:01;15.10;99.90
18289;DHT22;9270;49.774;8.472;2023-05-10T04:57:28;15.00;99.90
18289;DHT22;9270;49.774;8.472;2023-05-10T04:59:55;14.90;99.90
18289;DHT22;9270;49.774;8.472;2023-05-10T05:02:21;14.90;99.90
18289;DHT22;9270;49.774;8.472;2023-05-10T05:04:49;15.00;99.90
18289;DHT22;9270;49.774;8.472;2023-05-10T05:07:16;14.90;99.90
18289;DHT22;9270;49.774;8.472;2023-05-10T05:09:43;14.90;99.90
18289;DHT22;9270;49.774;8.472;2023-05-10T05:12:11;14.90;99.90
18289;DHT22;9270;49.774;8.472;2023-05-10T05:14:39;15.00;99.90
18289;DHT22;9270;49.774;8.472;2023-05-10T05:17:06;15.10;99.90
18289;DHT22;9270;49.774;8.472;2023-05-10T05:19:33;15.20;99.90
18289;DHT22;9270;49.774;8.472;2023-05-10T05:22:01;15.10;99.90
18289;DHT22;9270;49.774;8.472;2023-05-10T05:24:27;15.10;99.90
18289;DHT22;9270;49.774;8.472;2023-05-10T05:26:54;15.10;99.90
18289;DHT22;9270;49.774;8.472;2023-05-10T05:29:22;15.20;99.90
18289;DHT22;9270;49.774;8.472;2023-05-10T05:31:49;15.30;99.90
18289;DHT22;9270;49.774;8.472;2023-05-10T05:34:15;15.50;99.90
18289;DHT22;9270;49.774;8.472;2023-05-10T05:36:42;15.60;99.90
18289;DHT22;9270;49.774;8.472;2023-05-10T05:39:09;15.70;99.90
18289;DHT22;9270;49.774;8.472;2023-05-10T05:41:36;15.60;99.90
18289;DHT22;9270;49.774;8.472;2023-05-10T05:44:02;15.60;99.90
18289;DHT22;9270;49.774;8.472;2023-05-10T05:46:30;15.70;99.90
18289;DHT22;9270;49.774;8.472;2023-05-10T05:48:57;15.70;99.90
18289;DHT22;9270;49.774;8.472;2023-05-10T05:51:24;16.00;99.90
18289;DHT22;9270;49.774;8.472;2023-05-10T05:53:51;16.10;99.90
18289;DHT22;9270;49.774;8.472;2023-05-10T05:56:17;16.20;99.90
18289;DHT22;9270;49.774;8.472;2023-05-10T05:58:49;16.10;99.90
18289;DHT22;9270;49.774;8.472;2023-05-10T06:01:16;15.90;99.90
18289;DHT22;9270;49.774;8.472;2023-05-10T06:03:44;15.90;99.90
18289;DHT22;9270;49.774;8.472;2023-05-10T06:06:11;16.30;99.90
18289;DHT22;9270;49.774;8.472;2023-05-10T06:08:37;16.50;99.90
18289;DHT22;9270;49.774;8.472;2023-05-10T06:11:04;16.80;99.90
18289;DHT22;9270;49.774;8.472;2023-05-10T06:13:31;17.10;99.90
18289;DHT22;9270;49.774;8.472;2023-05-10T06:16:00;17.30;99.90
18289;DHT22;9270;49.774;8.472;2023-05-10T06:18:27;17.50;99.90
18289;DHT22;9270;49.774;8.472;2023-05-10T06:20:55;17.50;99.90
18289;DHT22;9270;49.774;8.472;2023-05-10T06:23:22;17.40;99.90
18289;DHT22;9270;49.774;8.472;2023-05-10T06:25:51;17.50;99.90
18289;DHT22;9270;49.774;8.472;2023-05-10T06:28:17;17.30;99.90
18289;DHT22;9270;49.774;8.472;2023-05-10T06:30:45;17.80;99.90
18289;DHT22;9270;49.774;8.472;2023-05-10T06:33:11;18.20;99.90
18289;DHT22;9270;49.774;8.472;2023-05-10T06:35:38;18.00;99.90
18289;DHT22;9270;49.774;8.472;2023-05-10T06:38:06;17.80;99.90
18289;DHT22;9270;49.774;8.472;2023-05-10T06:40:33;17.50;99.90
18289;DHT22;9270;49.774;8.472;2023-05-10T06:43:00;17.50;99.90
18289;DHT22;9270;49.774;8.472;2023-05-10T06:45:26;17.70;99.90
18289;DHT22;9270;49.774;8.472;2023-05-10T06:47:53;17.50;99.90
18289;DHT22;9270;49.774;8.472;2023-05-10T06:50:20;17.40;99.90
18289;DHT22;9270;49.774;8.472;2023-05-10T06:52:47;17.40;99.90
18289;DHT22;9270;49.774;8.472;2023-05-10T06:55:15;17.40;99.90
18289;DHT22;9270;49.774;8.472;2023-05-10T06:57:42;17.20;99.90
18289;DHT22;9270;49.774;8.472;2023-05-10T07:00:09;17.20;99.90
18289;DHT22;9270;49.774;8.472;2023-05-10T07:02:36;17.00;99.90
18289;DHT22;9270;49.774;8.472;2023-05-10T07:05:03;17.10;99.90
18289;DHT22;9270;49.774;8.472;2023-05-10T07:07:30;17.10;99.90
18289;DHT22;9270;49.774;8.472;2023-05-10T07:09:57;17.00;99.90
18289;DHT22;9270;49.774;8.472;2023-05-10T07:12:25;17.20;99.90
18289;DHT22;9270;49.774;8.472;2023-05-10T07:14:52;17.50;99.90
18289;DHT22;9270;49.774;8.472;2023-05-10T07:17:18;18.00;99.90
18289;DHT22;9270;49.774;8.472;2023-05-10T07:19:47;18.60;99.90
18289;DHT22;9270;49.774;8.472;2023-05-10T07:22:14;19.00;99.90
18289;DHT22;9270;49.774;8.472;2023-05-10T07:24:42;19.30;99.90
18289;DHT22;9270;49.774;8.472;2023-05-10T07:27:09;19.40;99.90
18289;DHT22;9270;49.774;8.472;2023-05-10T07:29:37;19.20;99.90
18289;DHT22;9270;49.774;8.472;2023-05-10T07:32:04;19.20;99.90
18289;DHT22;9270;49.774;8.472;2023-05-10T07:38:12;19.30;99.90
18289;DHT22;9270;49.774;8.472;2023-05-10T07:40:39;18.90;99.90
18289;DHT22;9270;49.774;8.472;2023-05-10T07:43:06;18.50;99.90
18289;DHT22;9270;49.774;8.472;2023-05-10T07:45:34;18.00;99.90
18289;DHT22;9270;49.774;8.472;2023-05-10T07:48:01;18.10;99.90
18289;DHT22;9270;49.774;8.472;2023-05-10T07:50:28;18.30;99.90
18289;DHT22;9270;49.774;8.472;2023-05-10T07:52:54;18.40;99.90
18289;DHT22;9270;49.774;8.472;2023-05-10T07:55:21;18.30;99.90
18289;DHT22;9270;49.774;8.472;2023-05-10T07:57:48;17.80;99.90
18289;DHT22;9270;49.774;8.472;2023-05-10T08:00:18;17.50;99.90
18289;DHT22;9270;49.774;8.472;2023-05-10T08:02:47;17.50;99.90
18289;DHT22;9270;49.774;8.472;2023-05-10T08:05:13;17.50;99.90
18289;DHT22;9270;49.774;8.472;2023-05-10T08:07:40;17.50;99.90
18289;DHT22;9270;49.774;8.472;2023-05-10T08:10:08;17.50;99.90
18289;DHT22;9270;49.774;8.472;2023-05-10T08:12:36;17.60;99.90
18289;DHT22;9270;49.774;8.472;2023-05-10T08:15:04;17.80;99.90
18289;DHT22;9270;49.774;8.472;2023-05-10T08:17:32;18.30;99.90
18289;DHT22;9270;49.774;8.472;2023-05-10T08:20:00;18.90;99.90
18289;DHT22;9270;49.774;8.472;2023-05-10T08:22:27;19.20;99.90
18289;DHT22;9270;49.774;8.472;2023-05-10T08:24:53;19.50;99.90
18289;DHT22;9270;49.774;8.472;2023-05-10T08:27:20;19.60;99.90
18289;DHT22;9270;49.774;8.472;2023-05-10T08:29:47;19.60;99.90
18289;DHT22;9270;49.774;8.472;2023-05-10T08:32:13;19.40;99.90
18289;DHT22;9270;49.774;8.472;2023-05-10T08:34:40;19.50;99.90
18289;DHT22;9270;49.774;8.472;2023-05-10T08:37:08;20.10;99.90
18289;DHT22;9270;49.774;8.472;2023-05-10T08:39:38;21.30;99.90
18289;DHT22;9270;49.774;8.472;2023-05-10T08:42:05;22.80;99.90
18289;DHT22;9270;49.774;8.472;2023-05-10T08:44:35;23.60;99.90
18289;DHT22;9270;49.774;8.472;2023-05-10T08:47:04;24.30;99.90
18289;DHT22;9270;49.774;8.472;2023-05-10T08:49:32;24.30;99.90
18289;DHT22;9270;49.774;8.472;2023-05-10T08:52:03;24.80;99.90
18289;DHT22;9270;49.774;8.472;2023-05-10T08:54:32;24.70;99.90
18289;DHT22;9270;49.774;8.472;2023-05-10T08:57:00;24.30;99.90
18289;DHT22;9270;49.774;8.472;2023-05-10T08:59:27;23.60;99.90
18289;DHT22;9270;49.774;8.472;2023-05-10T09:01:56;22.50;99.90
18289;DHT22;9270;49.774;8.472;2023-05-10T09:04:24;21.80;99.90
18289;DHT22;9270;49.774;8.472;2023-05-10T09:06:52;21.10;99.90
18289;DHT22;9270;49.774;8.472;2023-05-10T09:09:19;21.10;99.90
18289;DHT22;9270;49.774;8.472;2023-05-10T09:11:48;21.20;99.90
18289;DHT22;9270;49.774;8.472;2023-05-10T09:14:15;21.30;99.90
18289;DHT22;9270;49.774;8.472;2023-05-10T09:16:42;21.60;99.90
18289;DHT22;9270;49.774;8.472;2023-05-10T09:19:10;21.90;99.90
18289;DHT22;9270;49.774;8.472;2023-05-10T09:21:36;21.60;99.90
18289;DHT22;9270;49.774;8.472;2023-05-10T09:24:04;20.70;99.90
18289;DHT22;9270;49.774;8.472;2023-05-10T09:26:31;20.60;99.90
18289;DHT22;9270;49.774;8.472;2023-05-10T09:29:00;20.80;99.90
18289;DHT22;9270;49.774;8.472;2023-05-10T09:31:43;21.10;99.90
18289;DHT22;9270;49.774;8.472;2023-05-10T09:34:15;21.40;99.90
18289;DHT22;9270;49.774;8.472;2023-05-10T09:36:51;21.80;99.90
18289;DHT22;9270;49.774;8.472;2023-05-10T09:39:17;22.50;99.90
18289;DHT22;9270;49.774;8.472;2023-05-10T09:41:44;22.70;99.90
18289;DHT22;9270;49.774;8.472;2023-05-10T09:44:16;22.70;99.90
18289;DHT22;9270;49.774;8.472;2023-05-10T09:46:49;23.30;99.90
18289;DHT22;9270;49.774;8.472;2023-05-10T09:49:16;23.90;99.30
18289;DHT22;9270;49.774;8.472;2023-05-10T09:51:42;23.40;99.30
18289;DHT22;9270;49.774;8.472;2023-05-10T09:54:10;23.10;99.60
18289;DHT22;9270;49.774;8.472;2023-05-10T09:56:38;23.60;98.20
18289;DHT22;9270;49.774;8.472;2023-05-10T09:59:07;23.90;97.20
18289;DHT22;9270;49.774;8.472;2023-05-10T10:01:35;24.20;96.20
18289;DHT22;9270;49.774;8.472;2023-05-10T10:04:03;24.10;95.40
18289;DHT22;9270;49.774;8.472;2023-05-10T10:06:35;24.20;95.10
18289;DHT22;9270;49.774;8.472;2023-05-10T10:09:03;23.70;93.90
18289;DHT22;9270;49.774;8.472;2023-05-10T10:11:30;23.80;94.30
18289;DHT22;9270;49.774;8.472;2023-05-10T10:13:56;24.00;93.40
18289;DHT22;9270;49.774;8.472;2023-05-10T10:16:24;24.00;92.30
18289;DHT22;9270;49.774;8.472;2023-05-10T10:18:52;24.00;91.50
18289;DHT22;9270;49.774;8.472;2023-05-10T10:21:19;24.10;92.20
18289;DHT22;9270;49.774;8.472;2023-05-10T10:23:46;24.30;91.00
18289;DHT22;9270;49.774;8.472;2023-05-10T10:26:14;24.00;91.50
18289;DHT22;9270;49.774;8.472;2023-05-10T10:28:51;23.70;91.00
18289;DHT22;9270;49.774;8.472;2023-05-10T10:31:27;23.00;92.40
18289;DHT22;9270;49.774;8.472;2023-05-10T10:34:00;22.80;93.50
18289;DHT22;9270;49.774;8.472;2023-05-10T10:36:27;22.80;93.50
18289;DHT22;9270;49.774;8.472;2023-05-10T10:38:58;23.00;93.40
18289;DHT22;9270;49.774;8.472;2023-05-10T10:41:33;22.60;94.30
18289;DHT22;9270;49.774;8.472;2023-05-10T10:47:21;22.00;95.60
18289;DHT22;9270;49.774;8.472;2023-05-10T10:49:52;21.90;93.20
18289;DHT22;9270;49.774;8.472;2023-05-10T10:52:24;22.20;93.40
18289;DHT22;9270;49.774;8.472;2023-05-10T10:54:58;22.30;92.50
18289;DHT22;9270;49.774;8.472;2023-05-10T10:57:25;22.50;92.40
18289;DHT22;9270;49.774;8.472;2023-05-10T11:00:21;22.70;91.60
18289;DHT22;9270;49.774;8.472;2023-05-10T11:02:50;23.00;92.00
18289;DHT22;9270;49.774;8.472;2023-05-10T11:05:26;23.30;91.90
18289;DHT22;9270;49.774;8.472;2023-05-10T11:08:02;23.50;90.60
18289;DHT22;9270;49.774;8.472;2023-05-10T11:10:33;23.70;90.50
18289;DHT22;9270;49.774;8.472;2023-05-10T11:13:00;23.60;90.00
18289;DHT22;9270;49.774;8.472;2023-05-10T11:15:31;23.90;89.30
18289;DHT22;9270;49.774;8.472;2023-05-10T11:17:58;23.70;87.80
18289;DHT22;9270;49.774;8.472;2023-05-10T11:20:29;23.60;87.30
18289;DHT22;9270;49.774;8.472;2023-05-10T11:23:12;23.60;86.90
18289;DHT22;9270;49.774;8.472;2023-05-10T11:25:42;23.70;86.90
18289;DHT22;9270;49.774;8.472;2023-05-10T11:28:10;23.80;86.20
18289;DHT22;9270;49.774;8.472;2023-05-10T11:30:38;24.10;86.00
18289;DHT22;9270;49.774;8.472;2023-05-10T11:33:05;24.20;86.70
18289;DHT22;9270;49.774;8.472;2023-05-10T11:35:36;24.50;87.50
18289;DHT22;9270;49.774;8.472;2023-05-10T11:38:05;24.30;82.40
18289;DHT22;9270;49.774;8.472;2023-05-10T11:40:32;24.20;83.00
18289;DHT22;9270;49.774;8.472;2023-05-10T11:42:59;24.40;83.40
18289;DHT22;9270;49.774;8.472;2023-05-10T11:45:26;24.40;85.40
18289;DHT22;9270;49.774;8.472;2023-05-10T11:47:53;24.50;86.20
18289;DHT22;9270;49.774;8.472;2023-05-10T11:50:20;23.80;85.50
18289;DHT22;9270;49.774;8.472;2023-05-10T11:52:51;23.10;86.40
18289;DHT22;9270;49.774;8.472;2023-05-10T11:55:18;22.70;86.60
18289;DHT22;9270;49.774;8.472;2023-05-10T11:57:46;22.40;86.40
18289;DHT22;9270;49.774;8.472;2023-05-10T12:00:13;22.20;87.00
18289;DHT22;9270;49.774;8.472;2023-05-10T12:02:40;22.20;86.90
18289;DHT22;9270;49.774;8.472;2023-05-10T12:05:08;22.40;86.70
18289;DHT22;9270;49.774;8.472;2023-05-10T12:07:35;22.40;85.80
18289;DHT22;9270;49.774;8.472;2023-05-10T12:10:05;23.00;85.50
18289;DHT22;9270;49.774;8.472;2023-05-10T12:12:37;23.40;83.90
18289;DHT22;9270;49.774;8.472;2023-05-10T12:15:05;23.50;86.60
18289;DHT22;9270;49.774;8.472;2023-05-10T12:17:37;23.70;86.90
18289;DHT22;9270;49.774;8.472;2023-05-10T12:20:15;24.00;86.60
18289;DHT22;9270;49.774;8.472;2023-05-10T12:22:44;24.00;84.70
18289;DHT22;9270;49.774;8.472;2023-05-10T12:25:12;23.70;85.90
18289;DHT22;9270;49.774;8.472;2023-05-10T12:27:39;23.70;83.60
18289;DHT22;9270;49.774;8.472;2023-05-10T12:30:07;23.20;86.30
18289;DHT22;9270;49.774;8.472;2023-05-10T12:32:40;23.20;86.50
18289;DHT22;9270;49.774;8.472;2023-05-10T12:35:08;23.50;86.30
18289;DHT22;9270;49.774;8.472;2023-05-10T12:37:35;23.50;85.60
18289;DHT22;9270;49.774;8.472;2023-05-10T12:40:06;23.00;85.80
18289;DHT22;9270;49.774;8.472;2023-05-10T12:42:36;23.40;87.20
18289;DHT22;9270;49.774;8.472;2023-05-10T12:45:03;23.20;84.50
18289;DHT22;9270;49.774;8.472;2023-05-10T12:47:30;23.10;86.10
18289;DHT22;9270;49.774;8.472;2023-05-10T12:49:57;22.50;86.70
18289;DHT22;9270;49.774;8.472;2023-05-10T12:52:24;21.90;89.40
18289;DHT22;9270;49.774;8.472;2023-05-10T12:54:51;21.60;90.50
18289;DHT22;9270;49.774;8.472;2023-05-10T12:57:18;21.50;91.00
18289;DHT22;9270;49.774;8.472;2023-05-10T12:59:46;21.50;90.80
18289;DHT22;9270;49.774;8.472;2023-05-10T13:02:13;21.30;90.20
18289;DHT22;9270;49.774;8.472;2023-05-10T13:04:40;21.40;88.60
18289;DHT22;9270;49.774;8.472;2023-05-10T13:07:07;21.70;88.60
18289;DHT22;9270;49.774;8.472;2023-05-10T13:09:34;21.90;87.00
18289;DHT22;9270;49.774;8.472;2023-05-10T13:12:02;22.10;88.10
18289;DHT22;9270;49.774;8.472;2023-05-10T13:14:29;22.30;87.60
18289;DHT22;9270;49.774;8.472;2023-05-10T13:16:57;22.20;87.50
18289;DHT22;9270;49.774;8.472;2023-05-10T13:19:26;22.10;87.50
18289;DHT22;9270;49.774;8.472;2023-05-10T13:21:53;22.10;88.50
18289;DHT22;9270;49.774;8.472;2023-05-10T13:24:19;21.90;88.00
18289;DHT22;9270;49.774;8.472;2023-05-10T13:26:46;21.80;88.90
18289;DHT22;9270;49.774;8.472;2023-05-10T13:29:13;21.90;88.80
18289;DHT22;9270;49.774;8.472;2023-05-10T13:31:42;21.90;90.90
18289;DHT22;9270;49.774;8.472;2023-05-10T13:34:10;22.00;91.30
18289;DHT22;9270;49.774;8.472;2023-05-10T13:36:37;21.80;91.50
18289;DHT22;9270;49.774;8.472;2023-05-10T13:39:04;21.90;92.30
18289;DHT22;9270;49.774;8.472;2023-05-10T13:41:31;21.50;90.80
18289;DHT22;9270;49.774;8.472;2023-05-10T13:43:57;21.60;92.30
18289;DHT22;9270;49.774;8.472;2023-05-10T13:46:24;21.30;92.20
18289;DHT22;9270;49.774;8.472;2023-05-10T13:48:51;21.30;91.60
18289;DHT22;9270;49.774;8.472;2023-05-10T13:51:19;21.30;92.50
18289;DHT22;9270;49.774;8.472;2023-05-10T13:53:45;21.30;92.00
18289;DHT22;9270;49.774;8.472;2023-05-10T13:56:13;21.10;91.90
18289;DHT22;9270;49.774;8.472;2023-05-10T13:58:40;21.30;92.10
18289;DHT22;9270;49.774;8.472;2023-05-10T14:01:07;21.30;91.90
18289;DHT22;9270;49.774;8.472;2023-05-10T14:03:33;21.20;92.50
18289;DHT22;9270;49.774;8.472;2023-05-10T14:06:00;21.10;90.90
18289;DHT22;9270;49.774;8.472;2023-05-10T14:08:28;21.10;90.80
18289;DHT22;9270;49.774;8.472;2023-05-10T14:10:55;21.00;91.10
18289;DHT22;9270;49.774;8.472;2023-05-10T14:13:23;21.00;91.60
18289;DHT22;9270;49.774;8.472;2023-05-10T14:15:50;21.10;91.40
18289;DHT22;9270;49.774;8.472;2023-05-10T14:18:17;21.30;91.60
18289;DHT22;9270;49.774;8.472;2023-05-10T14:20:43;21.50;90.30
18289;DHT22;9270;49.774;8.472;2023-05-10T14:23:10;21.70;91.30
18289;DHT22;9270;49.774;8.472;2023-05-10T14:25:40;21.70;88.40
18289;DHT22;9270;49.774;8.472;2023-05-10T14:28:06;21.60;88.90
18289;DHT22;9270;49.774;8.472;2023-05-10T14:30:33;21.60;88.80
18289;DHT22;9270;49.774;8.472;2023-05-10T14:33:01;21.50;88.80
18289;DHT22;9270;49.774;8.472;2023-05-10T14:35:28;21.40;88.80
18289;DHT22;9270;49.774;8.472;2023-05-10T14:37:56;21.50;89.40
18289;DHT22;9270;49.774;8.472;2023-05-10T14:40:23;21.60;89.40
18289;DHT22;9270;49.774;8.472;2023-05-10T14:42:51;21.80;88.70
18289;DHT22;9270;49.774;8.472;2023-05-10T14:45:18;21.60;87.70
18289;DHT22;9270;49.774;8.472;2023-05-10T14:47:45;21.60;89.00
18289;DHT22;9270;49.774;8.472;2023-05-10T14:50:12;21.60;88.60
18289;DHT22;9270;49.774;8.472;2023-05-10T14:52:39;21.60;88.90
18289;DHT22;9270;49.774;8.472;2023-05-10T14:55:06;21.50;88.80
18289;DHT22;9270;49.774;8.472;2023-05-10T14:57:33;21.40;89.10
18289;DHT22;9270;49.774;8.472;2023-05-10T15:00:01;20.90;89.40
18289;DHT22;9270;49.774;8.472;2023-05-10T15:02:29;20.80;90.80
18289;DHT22;9270;49.774;8.472;2023-05-10T15:04:55;21.20;90.30
18289;DHT22;9270;49.774;8.472;2023-05-10T15:07:23;21.30;89.60
18289;DHT22;9270;49.774;8.472;2023-05-10T15:09:50;21.30;90.10
18289;DHT22;9270;49.774;8.472;2023-05-10T15:12:17;21.30;90.70
18289;DHT22;9270;49.774;8.472;2023-05-10T15:14:43;21.20;90.50
18289;DHT22;9270;49.774;8.472;2023-05-10T15:17:12;21.10;89.80
18289;DHT22;9270;49.774;8.472;2023-05-10T15:19:38;21.00;89.40
18289;DHT22;9270;49.774;8.472;2023-05-10T15:22:05;21.10;90.10
18289;DHT22;9270;49.774;8.472;2023-05-10T15:24:32;20.90;88.20
18289;DHT22;9270;49.774;8.472;2023-05-10T15:26:58;20.70;89.50
18289;DHT22;9270;49.774;8.472;2023-05-10T15:29:25;20.90;91.10
18289;DHT22;9270;49.774;8.472;2023-05-10T15:31:52;21.00;90.00
18289;DHT22;9270;49.774;8.472;2023-05-10T15:34:20;21.20;90.60
18289;DHT22;9270;49.774;8.472;2023-05-10T15:36:47;21.10;88.90
18289;DHT22;9270;49.774;8.472;2023-05-10T15:39:13;21.10;89.50
18289;DHT22;9270;49.774;8.472;2023-05-10T15:41:40;21.10;91.10
18289;DHT22;9270;49.774;8.472;2023-05-10T15:44:07;21.00;89.90
18289;DHT22;9270;49.774;8.472;2023-05-10T15:46:33;21.10;90.30
18289;DHT22;9270;49.774;8.472;2023-05-10T15:49:00;21.10;89.60
18289;DHT22;9270;49.774;8.472;2023-05-10T15:51:28;21.00;89.20
18289;DHT22;9270;49.774;8.472;2023-05-10T15:53:55;20.80;87.30
18289;DHT22;9270;49.774;8.472;2023-05-10T15:56:22;20.80;86.80
18289;DHT22;9270;49.774;8.472;2023-05-10T15:58:49;21.00;86.40
18289;DHT22;9270;49.774;8.472;2023-05-10T16:01:16;21.30;88.00
18289;DHT22;9270;49.774;8.472;2023-05-10T16:03:42;21.20;86.70
18289;DHT22;9270;49.774;8.472;2023-05-10T16:06:09;21.20;89.70
18289;DHT22;9270;49.774;8.472;2023-05-10T16:08:37;21.10;90.20
18289;DHT22;9270;49.774;8.472;2023-05-10T16:11:04;21.30;86.30
18289;DHT22;9270;49.774;8.472;2023-05-10T16:13:30;21.20;86.80